sensor_id;sensor_type;location;lat;lon;timestamp;P1;durP1;ratioP1;P2;durP2;ratioP2
68176;SDS011;56478;50.982;7.032;2024-03-23T00:51:20;20.58;;;6.43;;
68176;SDS011;56478;50.982;7.032;2024-03-23T00:53:46;16.63;;;6.80;;
68176;SDS011;56478;50.982;7.032;2024-03-23T00:56:12;14.75;;;5.97;;
68176;SDS011;56478;50.982;7.032;2024-03-23T00:58:38;16.63;;;6.38;;
68176;SDS011;56478;50.982;7.032;2024-03-23T01:01:03;14.82;;;6.18;;
68176;SDS011;56478;50.982;7.032;2024-03-23T01:03:29;14.00;;;6.00;;
68176;SDS011;56478;50.982;7.032;2024-03-23T01:05:58;14.77;;;6.57;;
68176;SDS011;56478;50.982;7.032;2024-03-23T01:08:25;18.88;;;6.55;;
68176;SDS011;56478;50.982;7.032;2024-03-23T01:10:54;18.98;;;6.78;;
68176;SDS011;56478;50.982;7.032;2024-03-23T01:13:24;14.82;;;6.32;;
68176;SDS011;56478;50.982;7.032;2024-03-23T01:15:50;16.80;;;6.45;;
68176;SDS011;56478;50.982;7.032;2024-03-23T01:20:46;12.60;;;5.93;;
68176;SDS011;56478;50.982;7.032;2024-03-23T01:23:12;7.00;;;4.45;;
68176;SDS011;56478;50.982;7.032;2024-03-23T01:25:38;7.70;;;3.30;;
68176;SDS011;56478;50.982;7.032;2024-03-23T01:28:04;5.03;;;3.33;;
68176;SDS011;56478;50.982;7.032;2024-03-23T01:30:31;8.60;;;3.45;;
68176;SDS011;56478;50.982;7.032;2024-03-23T01:32:57;7.30;;;2.90;;
68176;SDS011;56478;50.982;7.032;2024-03-23T01:35:23;5.95;;;3.05;;
68176;SDS011;56478;50.982;7.032;2024-03-23T01:37:49;6.88;;;2.78;;
68176;SDS011;56478;50.982;7.032;2024-03-23T01:40:16;6.28;;;2.60;;
68176;SDS011;56478;50.982;7.032;2024-03-23T01:42:41;6.45;;;2.58;;
68176;SDS011;56478;50.982;7.032;2024-03-23T01:45:07;8.63;;;2.72;;
68176;SDS011;56478;50.982;7.032;2024-03-23T01:47:34;7.00;;;2.45;;
68176;SDS011;56478;50.982;7.032;2024-03-23T01:50:00;9.30;;;2.90;;
68176;SDS011;56478;50.982;7.032;2024-03-23T01:52:26;4.07;;;2.42;;
68176;SDS011;56478;50.982;7.032;2024-03-23T01:54:53;4.55;;;2.50;;
68176;SDS011;56478;50.982;7.032;2024-03-23T01:57:19;6.45;;;2.58;;
68176;SDS011;56478;50.982;7.032;2024-03-23T01:59:48;4.50;;;2.50;;
68176;SDS011;56478;50.982;7.032;2024-03-23T02:02:14;3.67;;;2.20;;
68176;SDS011;56478;50.982;7.032;2024-03-23T02:04:40;5.03;;;2.20;;
68176;SDS011;56478;50.982;7.032;2024-03-23T02:07:08;4.22;;;2.30;;
68176;SDS011;56478;50.982;7.032;2024-03-23T02:09:34;8.68;;;2.92;;
68176;SDS011;56478;50.982;7.032;2024-03-23T02:12:01;7.60;;;2.13;;
68176;SDS011;56478;50.982;7.032;2024-03-23T02:14:27;4.65;;;2.28;;
68176;SDS011;56478;50.982;7.032;2024-03-23T02:16:52;7.43;;;2.60;;
68176;SDS011;56478;50.982;7.032;2024-03-23T02:19:18;3.47;;;2.40;;
68176;SDS011;56478;50.982;7.032;2024-03-23T02:21:44;5.80;;;2.30;;
68176;SDS011;56478;50.982;7.032;2024-03-23T02:24:09;4.20;;;2.45;;
68176;SDS011;56478;50.982;7.032;2024-03-23T02:26:35;7.28;;;2.30;;
68176;SDS011;56478;50.982;7.032;2024-03-23T02:29:00;5.10;;;2.20;;
68176;SDS011;56478;50.982;7.032;2024-03-23T02:31:26;6.50;;;2.45;;
68176;SDS011;56478;50.982;7.032;2024-03-23T02:33:52;5.07;;;2.40;;
68176;SDS011;56478;50.982;7.032;2024-03-23T02:36:17;6.50;;;2.38;;
68176;SDS011;56478;50.982;7.032;2024-03-23T02:38:43;5.75;;;2.70;;
68176;SDS011;56478;50.982;7.032;2024-03-23T02:41:09;7.07;;;2.97;;
68176;SDS011;56478;50.982;7.032;2024-03-23T02:43:34;7.60;;;2.80;;
68176;SDS011;56478;50.982;7.032;2024-03-23T02:46:00;5.20;;;2.60;;
68176;SDS011;56478;50.982;7.032;2024-03-23T02:48:26;6.68;;;3.00;;
68176;SDS011;56478;50.982;7.032;2024-03-23T02:50:51;7.30;;;2.50;;
68176;SDS011;56478;50.982;7.032;2024-03-23T02:53:19;4.85;;;2.50;;
68176;SDS011;56478;50.982;7.032;2024-03-23T02:55:44;5.68;;;2.35;;
68176;SDS011;56478;50.982;7.032;2024-03-23T02:58:10;7.57;;;2.50;;
68176;SDS011;56478;50.982;7.032;2024-03-23T03:00:36;7.60;;;2.47;;
68176;SDS011;56478;50.982;7.032;2024-03-23T03:03:02;7.78;;;2.80;;
68176;SDS011;56478;50.982;7.032;2024-03-23T03:05:28;6.82;;;3.30;;
68176;SDS011;56478;50.982;7.032;2024-03-23T03:07:54;6.80;;;3.00;;
68176;SDS011;56478;50.982;7.032;2024-03-23T03:10:19;6.68;;;2.72;;
68176;SDS011;56478;50.982;7.032;2024-03-23T03:12:45;9.52;;;3.33;;
68176;SDS011;56478;50.982;7.032;2024-03-23T03:15:11;10.95;;;3.17;;
68176;SDS011;56478;50.982;7.032;2024-03-23T03:17:36;7.22;;;3.00;;
68176;SDS011;56478;50.982;7.032;2024-03-23T03:20:02;8.80;;;3.00;;
68176;SDS011;56478;50.982;7.032;2024-03-23T03:22:29;9.05;;;3.00;;
68176;SDS011;56478;50.982;7.032;2024-03-23T03:24:55;4.85;;;2.50;;
68176;SDS011;56478;50.982;7.032;2024-03-23T03:27:21;7.25;;;2.95;;
68176;SDS011;56478;50.982;7.032;2024-03-23T03:29:47;8.35;;;2.90;;
68176;SDS011;56478;50.982;7.032;2024-03-23T03:32:13;9.18;;;2.83;;
68176;SDS011;56478;50.982;7.032;2024-03-23T03:34:38;4.32;;;2.60;;
68176;SDS011;56478;50.982;7.032;2024-03-23T03:37:04;7.20;;;2.47;;
68176;SDS011;56478;50.982;7.032;2024-03-23T03:39:30;6.88;;;2.50;;
68176;SDS011;56478;50.982;7.032;2024-03-23T03:41:55;8.68;;;2.70;;
68176;SDS011;56478;50.982;7.032;2024-03-23T03:44:21;9.75;;;2.80;;
68176;SDS011;56478;50.982;7.032;2024-03-23T03:46:46;5.32;;;2.28;;
68176;SDS011;56478;50.982;7.032;2024-03-23T03:49:12;10.02;;;2.75;;
68176;SDS011;56478;50.982;7.032;2024-03-23T03:51:38;10.63;;;2.83;;
68176;SDS011;56478;50.982;7.032;2024-03-23T03:54:03;8.02;;;2.80;;
68176;SDS011;56478;50.982;7.032;2024-03-23T03:56:29;7.85;;;2.65;;
68176;SDS011;56478;50.982;7.032;2024-03-23T03:58:54;8.68;;;2.80;;
68176;SDS011;56478;50.982;7.032;2024-03-23T04:01:20;5.10;;;2.50;;
68176;SDS011;56478;50.982;7.032;2024-03-23T04:03:45;7.03;;;2.53;;
68176;SDS011;56478;50.982;7.032;2024-03-23T04:06:11;10.15;;;2.85;;
68176;SDS011;56478;50.982;7.032;2024-03-23T04:08:37;7.25;;;2.53;;
68176;SDS011;56478;50.982;7.032;2024-03-23T04:11:03;8.85;;;2.75;;
68176;SDS011;56478;50.982;7.032;2024-03-23T04:13:28;10.77;;;3.03;;
68176;SDS011;56478;50.982;7.032;2024-03-23T04:15:55;8.85;;;3.08;;
68176;SDS011;56478;50.982;7.032;2024-03-23T04:18:21;10.00;;;2.85;;
68176;SDS011;56478;50.982;7.032;2024-03-23T04:20:47;11.13;;;3.08;;
68176;SDS011;56478;50.982;7.032;2024-03-23T04:23:14;6.68;;;2.78;;
68176;SDS011;56478;50.982;7.032;2024-03-23T04:25:39;11.25;;;2.95;;
68176;SDS011;56478;50.982;7.032;2024-03-23T04:28:05;13.05;;;2.63;;
68176;SDS011;56478;50.982;7.032;2024-03-23T04:30:31;8.80;;;2.95;;
68176;SDS011;56478;50.982;7.032;2024-03-23T04:32:57;7.00;;;2.75;;
68176;SDS011;56478;50.982;7.032;2024-03-23T04:35:24;8.90;;;3.10;;
68176;SDS011;56478;50.982;7.032;2024-03-23T04:37:55;9.10;;;3.08;;
68176;SDS011;56478;50.982;7.032;2024-03-23T04:40:23;9.35;;;3.00;;
68176;SDS011;56478;50.982;7.032;2024-03-23T04:42:49;8.77;;;3.22;;
68176;SDS011;56478;50.982;7.032;2024-03-23T04:45:15;10.15;;;3.17;;
68176;SDS011;56478;50.982;7.032;2024-03-23T04:47:40;6.13;;;2.45;;
68176;SDS011;56478;50.982;7.032;2024-03-23T04:50:06;8.88;;;2.35;;
68176;SDS011;56478;50.982;7.032;2024-03-23T04:52:32;9.63;;;2.22;;
68176;SDS011;56478;50.982;7.032;2024-03-23T04:54:57;5.90;;;2.15;;
68176;SDS011;56478;50.982;7.032;2024-03-23T04:57:23;10.32;;;2.42;;
68176;SDS011;56478;50.982;7.032;2024-03-23T04:59:48;4.28;;;2.00;;
68176;SDS011;56478;50.982;7.032;2024-03-23T05:02:14;9.10;;;2.38;;
68176;SDS011;56478;50.982;7.032;2024-03-23T05:04:40;4.78;;;1.80;;
68176;SDS011;56478;50.982;7.032;2024-03-23T05:07:06;9.02;;;2.30;;
68176;SDS011;56478;50.982;7.032;2024-03-23T05:09:32;10.07;;;2.60;;
68176;SDS011;56478;50.982;7.032;2024-03-23T05:12:01;9.80;;;2.40;;
68176;SDS011;56478;50.982;7.032;2024-03-23T05:14:26;7.13;;;2.08;;
68176;SDS011;56478;50.982;7.032;2024-03-23T05:16:52;6.70;;;2.13;;
68176;SDS011;56478;50.982;7.032;2024-03-23T05:19:18;10.55;;;2.38;;
68176;SDS011;56478;50.982;7.032;2024-03-23T05:21:44;6.72;;;2.15;;
68176;SDS011;56478;50.982;7.032;2024-03-23T05:24:11;6.40;;;2.53;;
68176;SDS011;56478;50.982;7.032;2024-03-23T05:26:37;7.93;;;2.47;;
68176;SDS011;56478;50.982;7.032;2024-03-23T05:29:02;6.57;;;2.30;;
68176;SDS011;56478;50.982;7.032;2024-03-23T05:31:29;8.32;;;2.53;;
68176;SDS011;56478;50.982;7.032;2024-03-23T05:33:55;7.25;;;2.40;;
68176;SDS011;56478;50.982;7.032;2024-03-23T05:36:21;8.07;;;2.40;;
68176;SDS011;56478;50.982;7.032;2024-03-23T05:38:48;11.00;;;2.67;;
68176;SDS011;56478;50.982;7.032;2024-03-23T05:41:14;6.90;;;2.38;;
68176;SDS011;56478;50.982;7.032;2024-03-23T05:43:40;8.02;;;2.28;;
68176;SDS011;56478;50.982;7.032;2024-03-23T05:46:05;8.73;;;2.30;;
68176;SDS011;56478;50.982;7.032;2024-03-23T05:48:32;10.85;;;2.35;;
68176;SDS011;56478;50.982;7.032;2024-03-23T05:50:58;12.05;;;2.67;;
68176;SDS011;56478;50.982;7.032;2024-03-23T05:53:24;6.80;;;2.13;;
68176;SDS011;56478;50.982;7.032;2024-03-23T05:55:50;9.50;;;2.50;;
68176;SDS011;56478;50.982;7.032;2024-03-23T05:58:18;7.72;;;2.58;;
68176;SDS011;56478;50.982;7.032;2024-03-23T06:00:45;11.65;;;2.40;;
68176;SDS011;56478;50.982;7.032;2024-03-23T06:03:11;11.02;;;2.85;;
68176;SDS011;56478;50.982;7.032;2024-03-23T06:05:37;8.30;;;2.50;;
68176;SDS011;56478;50.982;7.032;2024-03-23T06:08:03;12.40;;;2.33;;
68176;SDS011;56478;50.982;7.032;2024-03-23T06:10:29;5.88;;;2.38;;
68176;SDS011;56478;50.982;7.032;2024-03-23T06:12:55;7.43;;;2.40;;
68176;SDS011;56478;50.982;7.032;2024-03-23T06:15:20;11.32;;;2.65;;
68176;SDS011;56478;50.982;7.032;2024-03-23T06:17:47;12.38;;;2.72;;
68176;SDS011;56478;50.982;7.032;2024-03-23T06:20:13;9.48;;;2.70;;
68176;SDS011;56478;50.982;7.032;2024-03-23T06:22:39;14.25;;;2.88;;
68176;SDS011;56478;50.982;7.032;2024-03-23T06:25:05;8.40;;;2.78;;
68176;SDS011;56478;50.982;7.032;2024-03-23T06:27:32;8.88;;;2.45;;
68176;SDS011;56478;50.982;7.032;2024-03-23T06:30:00;8.32;;;2.80;;
68176;SDS011;56478;50.982;7.032;2024-03-23T06:32:27;6.82;;;2.50;;
68176;SDS011;56478;50.982;7.032;2024-03-23T06:34:54;9.88;;;2.72;;
68176;SDS011;56478;50.982;7.032;2024-03-23T06:37:20;9.77;;;2.75;;
68176;SDS011;56478;50.982;7.032;2024-03-23T06:39:46;9.10;;;2.33;;
68176;SDS011;56478;50.982;7.032;2024-03-23T06:42:12;9.50;;;2.67;;
68176;SDS011;56478;50.982;7.032;2024-03-23T06:44:38;9.88;;;2.83;;
68176;SDS011;56478;50.982;7.032;2024-03-23T06:47:04;10.13;;;2.72;;
68176;SDS011;56478;50.982;7.032;2024-03-23T06:49:30;10.85;;;2.90;;
68176;SDS011;56478;50.982;7.032;2024-03-23T06:51:55;9.30;;;3.08;;
68176;SDS011;56478;50.982;7.032;2024-03-23T06:54:21;7.18;;;2.65;;
68176;SDS011;56478;50.982;7.032;2024-03-23T06:56:47;9.90;;;2.83;;
68176;SDS011;56478;50.982;7.032;2024-03-23T06:59:12;10.63;;;3.40;;
68176;SDS011;56478;50.982;7.032;2024-03-23T07:01:38;12.93;;;2.80;;
68176;SDS011;56478;50.982;7.032;2024-03-23T07:04:04;8.55;;;3.03;;
68176;SDS011;56478;50.982;7.032;2024-03-23T07:06:30;12.05;;;3.13;;
68176;SDS011;56478;50.982;7.032;2024-03-23T07:08:56;12.05;;;2.75;;
68176;SDS011;56478;50.982;7.032;2024-03-23T07:11:22;10.18;;;2.92;;
68176;SDS011;56478;50.982;7.032;2024-03-23T07:13:51;8.50;;;2.72;;
68176;SDS011;56478;50.982;7.032;2024-03-23T07:16:17;10.90;;;3.20;;
68176;SDS011;56478;50.982;7.032;2024-03-23T07:18:43;11.63;;;3.20;;
68176;SDS011;56478;50.982;7.032;2024-03-23T07:21:09;11.07;;;3.20;;
68176;SDS011;56478;50.982;7.032;2024-03-23T07:23:34;8.48;;;2.92;;
68176;SDS011;56478;50.982;7.032;2024-03-23T07:26:01;8.40;;;3.20;;
68176;SDS011;56478;50.982;7.032;2024-03-23T07:28:28;9.25;;;3.40;;
68176;SDS011;56478;50.982;7.032;2024-03-23T07:33:29;9.15;;;3.17;;
68176;SDS011;56478;50.982;7.032;2024-03-23T07:35:54;9.27;;;3.20;;
68176;SDS011;56478;50.982;7.032;2024-03-23T07:38:20;11.65;;;3.28;;
68176;SDS011;56478;50.982;7.032;2024-03-23T07:40:45;8.98;;;3.65;;
68176;SDS011;56478;50.982;7.032;2024-03-23T07:43:11;8.43;;;3.20;;
68176;SDS011;56478;50.982;7.032;2024-03-23T07:45:37;6.72;;;3.13;;
68176;SDS011;56478;50.982;7.032;2024-03-23T07:48:03;7.65;;;3.30;;
68176;SDS011;56478;50.982;7.032;2024-03-23T07:50:29;8.00;;;3.60;;
68176;SDS011;56478;50.982;7.032;2024-03-23T07:52:55;10.80;;;3.90;;
68176;SDS011;56478;50.982;7.032;2024-03-23T07:55:20;10.82;;;3.55;;
68176;SDS011;56478;50.982;7.032;2024-03-23T07:57:46;7.68;;;3.63;;
68176;SDS011;56478;50.982;7.032;2024-03-23T08:00:12;8.45;;;4.13;;
68176;SDS011;56478;50.982;7.032;2024-03-23T08:02:38;9.75;;;4.18;;
68176;SDS011;56478;50.982;7.032;2024-03-23T08:05:04;11.07;;;4.07;;
68176;SDS011;56478;50.982;7.032;2024-03-23T08:07:30;11.40;;;4.72;;
68176;SDS011;56478;50.982;7.032;2024-03-23T08:09:55;11.15;;;4.55;;
68176;SDS011;56478;50.982;7.032;2024-03-23T08:12:21;12.63;;;4.40;;
68176;SDS011;56478;50.982;7.032;2024-03-23T08:14:47;9.85;;;4.68;;
68176;SDS011;56478;50.982;7.032;2024-03-23T08:17:12;8.40;;;4.30;;
68176;SDS011;56478;50.982;7.032;2024-03-23T08:19:38;8.90;;;4.00;;
68176;SDS011;56478;50.982;7.032;2024-03-23T08:22:03;8.43;;;4.25;;
68176;SDS011;56478;50.982;7.032;2024-03-23T08:24:29;11.55;;;3.90;;
68176;SDS011;56478;50.982;7.032;2024-03-23T08:26:55;8.75;;;3.85;;
68176;SDS011;56478;50.982;7.032;2024-03-23T08:29:21;7.63;;;3.63;;
68176;SDS011;56478;50.982;7.032;2024-03-23T08:31:46;11.13;;;3.65;;
68176;SDS011;56478;50.982;7.032;2024-03-23T08:34:12;6.72;;;3.53;;
68176;SDS011;56478;50.982;7.032;2024-03-23T08:36:37;9.95;;;3.45;;
68176;SDS011;56478;50.982;7.032;2024-03-23T08:39:03;8.45;;;3.22;;
68176;SDS011;56478;50.982;7.032;2024-03-23T08:41:29;11.38;;;3.38;;
68176;SDS011;56478;50.982;7.032;2024-03-23T08:43:54;5.60;;;2.90;;
68176;SDS011;56478;50.982;7.032;2024-03-23T08:46:20;7.82;;;2.60;;
68176;SDS011;56478;50.982;7.032;2024-03-23T08:48:46;8.98;;;2.83;;
68176;SDS011;56478;50.982;7.032;2024-03-23T08:51:14;10.82;;;3.00;;
68176;SDS011;56478;50.982;7.032;2024-03-23T08:53:41;9.85;;;3.30;;
68176;SDS011;56478;50.982;7.032;2024-03-23T08:56:08;10.38;;;3.58;;
68176;SDS011;56478;50.982;7.032;2024-03-23T08:58:34;8.70;;;3.50;;
68176;SDS011;56478;50.982;7.032;2024-03-23T09:01:04;6.72;;;3.40;;
68176;SDS011;56478;50.982;7.032;2024-03-23T09:03:32;8.60;;;3.55;;
68176;SDS011;56478;50.982;7.032;2024-03-23T09:05:57;9.60;;;3.63;;
68176;SDS011;56478;50.982;7.032;2024-03-23T09:08:24;14.18;;;3.90;;
68176;SDS011;56478;50.982;7.032;2024-03-23T09:10:51;8.68;;;3.67;;
68176;SDS011;56478;50.982;7.032;2024-03-23T09:13:17;10.05;;;3.83;;
68176;SDS011;56478;50.982;7.032;2024-03-23T09:15:46;11.07;;;3.90;;
68176;SDS011;56478;50.982;7.032;2024-03-23T09:18:13;11.20;;;4.03;;
68176;SDS011;56478;50.982;7.032;2024-03-23T09:20:39;10.55;;;3.55;;
68176;SDS011;56478;50.982;7.032;2024-03-23T09:23:05;7.45;;;3.70;;
68176;SDS011;56478;50.982;7.032;2024-03-23T09:25:30;8.55;;;3.50;;
68176;SDS011;56478;50.982;7.032;2024-03-23T09:27:56;12.40;;;3.70;;
68176;SDS011;56478;50.982;7.032;2024-03-23T09:30:23;7.25;;;3.40;;
68176;SDS011;56478;50.982;7.032;2024-03-23T09:32:48;7.88;;;3.30;;
68176;SDS011;56478;50.982;7.032;2024-03-23T09:35:14;7.68;;;3.25;;
68176;SDS011;56478;50.982;7.032;2024-03-23T09:37:39;9.07;;;3.38;;
68176;SDS011;56478;50.982;7.032;2024-03-23T09:40:05;8.35;;;3.17;;
68176;SDS011;56478;50.982;7.032;2024-03-23T09:42:34;10.15;;;3.35;;
68176;SDS011;56478;50.982;7.032;2024-03-23T09:45:00;7.15;;;3.17;;
68176;SDS011;56478;50.982;7.032;2024-03-23T09:47:26;6.57;;;2.95;;
68176;SDS011;56478;50.982;7.032;2024-03-23T09:49:52;9.27;;;3.05;;
68176;SDS011;56478;50.982;7.032;2024-03-23T09:52:18;7.75;;;3.00;;
68176;SDS011;56478;50.982;7.032;2024-03-23T09:54:44;7.03;;;2.90;;
68176;SDS011;56478;50.982;7.032;2024-03-23T09:57:10;7.43;;;2.95;;
68176;SDS011;56478;50.982;7.032;2024-03-23T09:59:35;8.63;;;2.78;;
68176;SDS011;56478;50.982;7.032;2024-03-23T10:02:01;5.55;;;2.70;;
68176;SDS011;56478;50.982;7.032;2024-03-23T10:04:40;4.88;;;2.72;;
68176;SDS011;56478;50.982;7.032;2024-03-23T10:07:17;7.80;;;2.70;;
68176;SDS011;56478;50.982;7.032;2024-03-23T10:09:44;7.85;;;2.50;;
68176;SDS011;56478;50.982;7.032;2024-03-23T10:12:11;4.47;;;2.53;;
68176;SDS011;56478;50.982;7.032;2024-03-23T10:14:42;8.32;;;2.70;;
68176;SDS011;56478;50.982;7.032;2024-03-23T10:17:11;6.03;;;2.63;;
68176;SDS011;56478;50.982;7.032;2024-03-23T10:19:43;6.70;;;2.50;;
68176;SDS011;56478;50.982;7.032;2024-03-23T10:22:21;9.45;;;2.60;;
68176;SDS011;56478;50.982;7.032;2024-03-23T10:24:48;3.72;;;2.13;;
68176;SDS011;56478;50.982;7.032;2024-03-23T10:27:20;9.10;;;2.42;;
68176;SDS011;56478;50.982;7.032;2024-03-23T10:29:49;7.32;;;2.25;;
68176;SDS011;56478;50.982;7.032;2024-03-23T10:32:18;6.55;;;2.05;;
68176;SDS011;56478;50.982;7.032;2024-03-23T10:34:44;5.22;;;1.80;;
68176;SDS011;56478;50.982;7.032;2024-03-23T10:37:10;5.28;;;2.03;;
68176;SDS011;56478;50.982;7.032;2024-03-23T10:39:36;4.28;;;1.98;;
68176;SDS011;56478;50.982;7.032;2024-03-23T10:42:04;7.65;;;2.10;;
68176;SDS011;56478;50.982;7.032;2024-03-23T10:44:33;4.97;;;2.45;;
68176;SDS011;56478;50.982;7.032;2024-03-23T10:47:03;5.63;;;2.00;;
68176;SDS011;56478;50.982;7.032;2024-03-23T10:49:33;7.30;;;2.20;;
68176;SDS011;56478;50.982;7.032;2024-03-23T10:52:00;4.68;;;2.03;;
68176;SDS011;56478;50.982;7.032;2024-03-23T10:54:28;7.32;;;2.00;;
68176;SDS011;56478;50.982;7.032;2024-03-23T10:59:43;4.93;;;1.80;;
68176;SDS011;56478;50.982;7.032;2024-03-23T11:02:18;1.85;;;1.25;;
68176;SDS011;56478;50.982;7.032;2024-03-23T11:04:44;2.72;;;1.25;;
68176;SDS011;56478;50.982;7.032;2024-03-23T11:09:57;3.28;;;1.83;;
68176;SDS011;56478;50.982;7.032;2024-03-23T11:14:50;2.97;;;1.45;;
68176;SDS011;56478;50.982;7.032;2024-03-23T11:17:23;4.72;;;1.95;;
68176;SDS011;56478;50.982;7.032;2024-03-23T11:19:57;6.93;;;1.90;;
68176;SDS011;56478;50.982;7.032;2024-03-23T11:22:45;2.63;;;1.90;;
68176;SDS011;56478;50.982;7.032;2024-03-23T11:27:49;5.25;;;1.90;;
68176;SDS011;56478;50.982;7.032;2024-03-23T11:30:17;3.13;;;1.65;;
68176;SDS011;56478;50.982;7.032;2024-03-23T11:32:43;3.00;;;1.63;;
68176;SDS011;56478;50.982;7.032;2024-03-23T11:35:09;2.13;;;1.10;;
68176;SDS011;56478;50.982;7.032;2024-03-23T11:37:38;2.67;;;1.30;;
68176;SDS011;56478;50.982;7.032;2024-03-23T11:40:18;1.40;;;1.20;;
68176;SDS011;56478;50.982;7.032;2024-03-23T11:42:44;3.13;;;1.50;;
68176;SDS011;56478;50.982;7.032;2024-03-23T11:45:10;2.45;;;1.35;;
68176;SDS011;56478;50.982;7.032;2024-03-23T11:47:36;2.75;;;1.30;;
68176;SDS011;56478;50.982;7.032;2024-03-23T11:50:02;1.15;;;1.08;;
68176;SDS011;56478;50.982;7.032;2024-03-23T11:52:28;3.63;;;1.20;;
68176;SDS011;56478;50.982;7.032;2024-03-23T11:55:04;2.67;;;1.23;;
68176;SDS011;56478;50.982;7.032;2024-03-23T11:57:32;2.60;;;1.20;;
68176;SDS011;56478;50.982;7.032;2024-03-23T11:59:58;2.85;;;1.05;;
68176;SDS011;56478;50.982;7.032;2024-03-23T12:02:24;1.73;;;1.20;;
68176;SDS011;56478;50.982;7.032;2024-03-23T12:04:49;1.50;;;1.20;;
68176;SDS011;56478;50.982;7.032;2024-03-23T12:07:15;1.90;;;1.40;;
68176;SDS011;56478;50.982;7.032;2024-03-23T12:10:03;3.22;;;1.48;;
68176;SDS011;56478;50.982;7.032;2024-03-23T12:12:31;4.68;;;2.13;;
68176;SDS011;56478;50.982;7.032;2024-03-23T12:17:33;3.15;;;2.00;;
68176;SDS011;56478;50.982;7.032;2024-03-23T12:20:00;3.92;;;1.88;;
68176;SDS011;56478;50.982;7.032;2024-03-23T12:22:26;3.45;;;1.70;;
68176;SDS011;56478;50.982;7.032;2024-03-23T12:24:52;3.92;;;1.88;;
68176;SDS011;56478;50.982;7.032;2024-03-23T12:27:18;3.70;;;1.90;;
68176;SDS011;56478;50.982;7.032;2024-03-23T12:29:44;3.15;;;1.80;;
68176;SDS011;56478;50.982;7.032;2024-03-23T12:32:12;3.78;;;1.75;;
68176;SDS011;56478;50.982;7.032;2024-03-23T12:34:39;1.70;;;1.60;;
68176;SDS011;56478;50.982;7.032;2024-03-23T12:37:05;2.30;;;1.20;;
68176;SDS011;56478;50.982;7.032;2024-03-23T12:39:37;2.25;;;1.50;;
68176;SDS011;56478;50.982;7.032;2024-03-23T12:42:03;1.70;;;1.50;;
68176;SDS011;56478;50.982;7.032;2024-03-23T12:44:29;1.95;;;1.60;;
68176;SDS011;56478;50.982;7.032;2024-03-23T12:46:54;1.42;;;1.30;;
68176;SDS011;56478;50.982;7.032;2024-03-23T12:49:20;3.20;;;1.40;;
68176;SDS011;56478;50.982;7.032;2024-03-23T12:51:48;1.20;;;1.20;;
68176;SDS011;56478;50.982;7.032;2024-03-23T12:54:20;1.15;;;1.00;;
68176;SDS011;56478;50.982;7.032;2024-03-23T12:56:47;1.60;;;1.50;;
68176;SDS011;56478;50.982;7.032;2024-03-23T12:59:13;1.38;;;1.38;;
68176;SDS011;56478;50.982;7.032;2024-03-23T13:01:39;1.00;;;1.00;;
68176;SDS011;56478;50.982;7.032;2024-03-23T13:04:05;3.30;;;1.00;;
68176;SDS011;56478;50.982;7.032;2024-03-23T13:06:30;1.08;;;1.00;;
68176;SDS011;56478;50.982;7.032;2024-03-23T13:08:59;2.67;;;1.10;;
68176;SDS011;56478;50.982;7.032;2024-03-23T13:11:28;1.10;;;1.00;;
68176;SDS011;56478;50.982;7.032;2024-03-23T13:13:54;1.85;;;1.00;;
68176;SDS011;56478;50.982;7.032;2024-03-23T13:16:20;1.20;;;1.10;;
68176;SDS011;56478;50.982;7.032;2024-03-23T13:18:46;1.27;;;1.10;;
68176;SDS011;56478;50.982;7.032;2024-03-23T13:21:12;1.30;;;1.20;;
68176;SDS011;56478;50.982;7.032;2024-03-23T13:23:37;1.00;;;1.00;;
68176;SDS011;56478;50.982;7.032;2024-03-23T13:26:05;1.30;;;1.20;;
68176;SDS011;56478;50.982;7.032;2024-03-23T13:28:30;2.38;;;1.35;;
68176;SDS011;56478;50.982;7.032;2024-03-23T13:30:56;2.35;;;1.48;;
68176;SDS011;56478;50.982;7.032;2024-03-23T13:33:29;2.88;;;1.42;;
68176;SDS011;56478;50.982;7.032;2024-03-23T13:35:55;1.67;;;1.50;;
68176;SDS011;56478;50.982;7.032;2024-03-23T13:38:21;3.00;;;1.70;;
68176;SDS011;56478;50.982;7.032;2024-03-23T13:43:20;5.43;;;1.75;;
68176;SDS011;56478;50.982;7.032;2024-03-23T13:45:50;2.85;;;1.60;;
68176;SDS011;56478;50.982;7.032;2024-03-23T13:48:21;1.88;;;1.77;;
68176;SDS011;56478;50.982;7.032;2024-03-23T13:51:01;2.67;;;1.60;;
68176;SDS011;56478;50.982;7.032;2024-03-23T13:53:28;3.00;;;1.92;;
68176;SDS011;56478;50.982;7.032;2024-03-23T13:55:53;3.53;;;2.08;;
68176;SDS011;56478;50.982;7.032;2024-03-23T13:58:19;2.95;;;1.80;;
68176;SDS011;56478;50.982;7.032;2024-03-23T14:00:45;3.75;;;1.90;;
68176;SDS011;56478;50.982;7.032;2024-03-23T14:03:12;2.80;;;2.17;;
68176;SDS011;56478;50.982;7.032;2024-03-23T14:05:38;4.47;;;2.00;;
68176;SDS011;56478;50.982;7.032;2024-03-23T14:08:08;2.58;;;1.75;;
68176;SDS011;56478;50.982;7.032;2024-03-23T14:10:34;4.38;;;1.80;;
68176;SDS011;56478;50.982;7.032;2024-03-23T14:15:29;1.73;;;1.30;;
68176;SDS011;56478;50.982;7.032;2024-03-23T14:17:58;0.90;;;0.90;;
68176;SDS011;56478;50.982;7.032;2024-03-23T14:20:23;2.83;;;1.35;;
68176;SDS011;56478;50.982;7.032;2024-03-23T14:22:49;3.92;;;1.35;;
68176;SDS011;56478;50.982;7.032;2024-03-23T14:25:15;4.65;;;1.30;;
68176;SDS011;56478;50.982;7.032;2024-03-23T14:27:41;2.15;;;1.20;;
68176;SDS011;56478;50.982;7.032;2024-03-23T14:30:09;1.52;;;1.23;;
68176;SDS011;56478;50.982;7.032;2024-03-23T14:32:35;1.95;;;1.50;;
68176;SDS011;56478;50.982;7.032;2024-03-23T14:35:05;2.53;;;1.58;;
68176;SDS011;56478;50.982;7.032;2024-03-23T14:37:38;3.40;;;1.50;;
68176;SDS011;56478;50.982;7.032;2024-03-23T14:40:05;2.05;;;1.52;;
68176;SDS011;56478;50.982;7.032;2024-03-23T14:42:31;2.13;;;1.40;;
68176;SDS011;56478;50.982;7.032;2024-03-23T14:44:57;2.78;;;1.60;;
68176;SDS011;56478;50.982;7.032;2024-03-23T14:47:23;3.03;;;1.60;;
68176;SDS011;56478;50.982;7.032;2024-03-23T14:49:49;3.47;;;1.58;;
68176;SDS011;56478;50.982;7.032;2024-03-23T14:52:15;2.60;;;1.80;;
68176;SDS011;56478;50.982;7.032;2024-03-23T14:54:45;6.32;;;1.70;;
68176;SDS011;56478;50.982;7.032;2024-03-23T14:57:11;3.40;;;1.60;;
68176;SDS011;56478;50.982;7.032;2024-03-23T14:59:37;3.88;;;1.63;;
68176;SDS011;56478;50.982;7.032;2024-03-23T15:02:08;2.65;;;1.83;;
68176;SDS011;56478;50.982;7.032;2024-03-23T15:04:34;2.80;;;1.55;;
68176;SDS011;56478;50.982;7.032;2024-03-23T15:07:00;2.83;;;1.50;;
68176;SDS011;56478;50.982;7.032;2024-03-23T15:09:25;3.67;;;1.30;;
68176;SDS011;56478;50.982;7.032;2024-03-23T15:11:51;4.45;;;1.40;;
68176;SDS011;56478;50.982;7.032;2024-03-23T15:14:17;1.63;;;1.30;;
68176;SDS011;56478;50.982;7.032;2024-03-23T15:16:42;3.40;;;1.40;;
68176;SDS011;56478;50.982;7.032;2024-03-23T15:19:08;2.45;;;1.27;;
68176;SDS011;56478;50.982;7.032;2024-03-23T15:21:34;2.05;;;1.27;;
68176;SDS011;56478;50.982;7.032;2024-03-23T15:23:59;2.80;;;1.33;;
68176;SDS011;56478;50.982;7.032;2024-03-23T15:26:25;1.67;;;1.40;;
68176;SDS011;56478;50.982;7.032;2024-03-23T15:28:51;2.65;;;1.40;;
68176;SDS011;56478;50.982;7.032;2024-03-23T15:31:23;1.60;;;1.25;;
68176;SDS011;56478;50.982;7.032;2024-03-23T15:33:49;1.60;;;1.50;;
68176;SDS011;56478;50.982;7.032;2024-03-23T15:36:15;2.50;;;1.80;;
68176;SDS011;56478;50.982;7.032;2024-03-23T15:38:41;5.40;;;2.00;;
68176;SDS011;56478;50.982;7.032;2024-03-23T15:41:08;2.55;;;1.60;;
68176;SDS011;56478;50.982;7.032;2024-03-23T15:43:33;2.42;;;1.70;;
68176;SDS011;56478;50.982;7.032;2024-03-23T15:48:29;4.50;;;2.00;;
68176;SDS011;56478;50.982;7.032;2024-03-23T15:50:58;2.35;;;1.55;;
68176;SDS011;56478;50.982;7.032;2024-03-23T15:53:25;1.83;;;1.70;;
68176;SDS011;56478;50.982;7.032;2024-03-23T15:56:01;3.08;;;1.92;;
68176;SDS011;56478;50.982;7.032;2024-03-23T15:58:28;2.17;;;1.98;;